createdAt,value
2022-10-19T00:02:30.471Z,10.44
2022-10-19T00:05:32.082Z,10.43
2022-10-19T00:08:33.632Z,10.43
2022-10-19T00:11:37.990Z,10.43
2022-10-19T00:14:39.558Z,10.42
2022-10-19T00:17:43.252Z,10.40
2022-10-19T00:20:44.944Z,10.38
2022-10-19T00:23:46.986Z,10.38
2022-10-19T00:26:48.848Z,10.38
2022-10-19T00:29:50.368Z,10.37
2022-10-19T00:32:51.903Z,10.37
2022-10-19T00:35:53.416Z,10.35
2022-10-19T00:38:56.259Z,10.34
2022-10-19T00:41:57.890Z,10.33
2022-10-19T00:45:03.952Z,10.34
2022-10-19T00:48:05.969Z,10.34
2022-10-19T00:51:07.656Z,10.34
2022-10-19T00:54:09.963Z,10.33
2022-10-19T00:57:12.222Z,10.33
2022-10-19T01:00:14.020Z,10.31
2022-10-19T01:03:15.842Z,10.30
2022-10-19T01:06:18.348Z,10.28
2022-10-19T01:09:20.008Z,10.26
2022-10-19T01:12:38.103Z,10.26
2022-10-19T01:15:51.105Z,10.25
2022-10-19T01:19:21.076Z,10.24
2022-10-19T01:22:43.652Z,10.23
2022-10-19T01:26:19.202Z,10.23
2022-10-19T01:29:41.390Z,10.23
2022-10-19T01:33:13.961Z,10.19
2022-10-19T01:36:26.409Z,10.17
2022-10-19T01:39:52.205Z,10.17
2022-10-19T01:43:02.550Z,10.15
2022-10-19T01:46:34.740Z,10.12
2022-10-19T01:49:44.708Z,10.11
2022-10-19T01:52:49.969Z,10.09
2022-10-19T01:55:54.277Z,10.08
2022-10-19T01:58:59.029Z,10.07
2022-10-19T02:02:03.617Z,10.06
2022-10-19T02:05:07.481Z,10.05
2022-10-19T02:08:17.418Z,10.05
2022-10-19T02:11:20.732Z,10.05
2022-10-19T02:14:27.809Z,10.05
2022-10-19T02:17:35.478Z,10.07
2022-10-19T02:20:37.589Z,10.04
2022-10-19T02:23:39.488Z,10.05
2022-10-19T02:26:41.674Z,10.03
2022-10-19T02:29:43.522Z,10.03
2022-10-19T02:32:45.131Z,10.00
2022-10-19T02:35:48.110Z,9.98
2022-10-19T02:38:49.694Z,9.96
2022-10-19T02:42:07.033Z,9.93
2022-10-19T02:45:17.740Z,9.89
2022-10-19T02:48:24.754Z,9.88
2022-10-19T02:51:32.339Z,9.88
2022-10-19T02:54:34.557Z,9.87
2022-10-19T02:57:36.948Z,9.85
2022-10-19T03:00:38.705Z,9.83
2022-10-19T03:03:41.260Z,9.82
2022-10-19T03:06:43.243Z,9.80
2022-10-19T03:09:45.539Z,9.78
2022-10-19T03:12:47.097Z,9.76
2022-10-19T03:15:48.942Z,9.74
2022-10-19T03:18:51.420Z,9.70
2022-10-19T03:21:52.945Z,9.68
2022-10-19T03:24:54.515Z,9.65
2022-10-19T03:27:56.067Z,9.63
2022-10-19T03:30:57.668Z,9.60
2022-10-19T03:33:59.201Z,9.58
2022-10-19T03:37:00.825Z,9.58
2022-10-19T03:40:02.434Z,9.57
2022-10-19T03:43:04.100Z,9.55
2022-10-19T03:46:05.791Z,9.55
2022-10-19T03:49:09.025Z,9.54
2022-10-19T03:52:10.585Z,9.50
2022-10-19T03:55:12.333Z,9.47
2022-10-19T03:58:13.865Z,9.45
2022-10-19T04:01:16.713Z,9.44
2022-10-19T04:04:19.689Z,9.43
2022-10-19T04:07:21.259Z,9.45
2022-10-19T04:10:22.783Z,9.44
2022-10-19T04:13:24.317Z,9.46
2022-10-19T04:16:27.719Z,9.48
2022-10-19T04:19:30.620Z,9.49
2022-10-19T04:22:32.284Z,9.49
2022-10-19T04:25:33.838Z,9.49
2022-10-19T04:28:35.419Z,9.49
2022-10-19T04:31:37.669Z,9.50
2022-10-19T04:34:40.187Z,9.49
2022-10-19T04:37:41.902Z,9.48
2022-10-19T04:40:43.446Z,9.50
2022-10-19T04:43:45.396Z,9.49
2022-10-19T04:46:47.001Z,9.51
2022-10-19T04:49:48.524Z,9.50
2022-10-19T04:52:50.104Z,9.51
2022-10-19T04:55:51.811Z,9.51
2022-10-19T04:58:58.616Z,9.50
2022-10-19T05:02:00.141Z,9.49
2022-10-19T05:05:01.803Z,9.50
2022-10-19T05:08:03.887Z,9.51
2022-10-19T05:11:14.678Z,9.52
2022-10-19T05:14:16.469Z,9.51
2022-10-19T05:17:18.026Z,9.51
2022-10-19T05:20:19.537Z,9.51
2022-10-19T05:23:21.152Z,9.50
2022-10-19T05:26:24.687Z,9.51
2022-10-19T05:29:26.217Z,9.51
2022-10-19T05:32:28.600Z,9.51
2022-10-19T05:35:30.149Z,9.50
2022-10-19T05:38:31.685Z,9.52
2022-10-19T05:41:33.790Z,9.88
2022-10-19T05:44:36.065Z,10.32
2022-10-19T05:47:37.891Z,10.53
2022-10-19T05:50:39.432Z,10.54
2022-10-19T05:53:41.617Z,10.58
2022-10-19T05:56:43.634Z,10.72
2022-10-19T05:59:45.198Z,10.70
2022-10-19T06:02:46.745Z,10.63
2022-10-19T06:05:49.512Z,10.55
2022-10-19T06:08:52.133Z,10.50
2022-10-19T06:11:53.678Z,10.43
2022-10-19T06:14:55.189Z,10.35
2022-10-19T06:17:56.719Z,10.28
2022-10-19T06:21:02.960Z,10.22
2022-10-19T06:24:05.787Z,10.15
2022-10-19T06:27:07.378Z,10.09
2022-10-19T06:30:09.512Z,10.05
2022-10-19T06:33:11.095Z,10.02
2022-10-19T06:36:15.183Z,9.98
2022-10-19T06:39:16.719Z,9.97
2022-10-19T06:42:18.292Z,9.94
2022-10-19T06:45:19.860Z,9.93
2022-10-19T06:48:21.685Z,9.88
2022-10-19T06:51:25.459Z,9.84
2022-10-19T06:54:26.988Z,9.80
2022-10-19T06:57:28.752Z,9.77
2022-10-19T07:00:31.262Z,9.75
2022-10-19T07:03:33.045Z,9.75
2022-10-19T07:06:34.586Z,9.75
2022-10-19T07:09:36.236Z,9.76
2022-10-19T07:12:37.765Z,9.77
2022-10-19T07:15:39.311Z,9.79
2022-10-19T07:18:41.525Z,9.80
2022-10-19T07:21:43.892Z,9.82
2022-10-19T07:24:45.681Z,9.84
2022-10-19T07:27:47.238Z,9.85
2022-10-19T07:30:48.811Z,9.89
2022-10-19T07:33:58.867Z,9.91
2022-10-19T07:37:00.376Z,9.93
2022-10-19T07:40:02.054Z,9.93
2022-10-19T07:43:03.735Z,9.94
2022-10-19T07:46:07.919Z,9.97
2022-10-19T07:49:13.258Z,10.02
2022-10-19T07:52:14.998Z,10.06
2022-10-19T07:55:16.527Z,10.09
2022-10-19T07:58:18.043Z,10.13
2022-10-19T08:01:22.972Z,10.17
2022-10-19T08:04:56.069Z,10.21
2022-10-19T08:07:47.010Z,10.22
2022-10-19T08:10:48.516Z,10.25
2022-10-19T08:13:50.567Z,10.28
2022-10-19T08:16:52.102Z,10.27
2022-10-19T08:19:53.652Z,10.28
2022-10-19T08:22:58.130Z,10.31
2022-10-19T08:26:00.704Z,10.35
2022-10-19T08:29:05.179Z,10.39
2022-10-19T08:32:06.743Z,10.43
2022-10-19T08:35:10.756Z,10.46
2022-10-19T08:38:12.528Z,10.50
2022-10-19T08:41:27.208Z,10.54
2022-10-19T08:44:34.909Z,10.57
2022-10-19T08:48:06.367Z,10.59
2022-10-19T08:51:10.133Z,10.63
2022-10-19T08:54:17.876Z,10.69
2022-10-19T08:58:03.889Z,10.73
2022-10-19T09:01:40.936Z,10.77
2022-10-19T09:04:49.077Z,10.81
2022-10-19T09:07:53.911Z,10.84
2022-10-19T09:10:55.570Z,10.88
2022-10-19T09:14:31.133Z,10.95
2022-10-19T09:17:33.590Z,10.99
2022-10-19T09:20:44.175Z,11.05
2022-10-19T09:24:07.308Z,11.23
2022-10-19T09:27:18.928Z,11.70
2022-10-19T09:30:23.515Z,11.99
2022-10-19T09:33:36.065Z,12.02
2022-10-19T09:36:50.952Z,12.04
2022-10-19T09:39:54.903Z,12.03
2022-10-19T09:42:58.869Z,12.02
2022-10-19T09:46:19.991Z,12.00
2022-10-19T09:49:40.372Z,11.92
2022-10-19T09:52:44.041Z,11.89
2022-10-19T09:55:53.516Z,11.84
2022-10-19T09:58:58.922Z,11.83
2022-10-19T10:02:18.265Z,11.82
2022-10-19T10:05:30.914Z,11.87
2022-10-19T10:08:58.789Z,11.87
2022-10-19T10:12:00.551Z,11.87
2022-10-19T10:15:06.403Z,11.86
2022-10-19T10:18:18.013Z,11.90
2022-10-19T10:21:35.733Z,12.00
2022-10-19T10:24:52.050Z,12.06
2022-10-19T10:27:57.913Z,12.10
2022-10-19T10:31:06.164Z,12.20
2022-10-19T10:34:37.615Z,12.28
2022-10-19T10:37:47.798Z,12.36
2022-10-19T10:40:56.871Z,12.45
2022-10-19T10:44:06.682Z,12.47
2022-10-19T10:47:14.956Z,12.52
2022-10-19T10:50:31.969Z,12.54
2022-10-19T10:53:36.204Z,12.50
2022-10-19T10:56:40.878Z,12.51
2022-10-19T11:00:07.769Z,12.55
2022-10-19T11:03:32.792Z,12.52
2022-10-19T11:06:44.450Z,12.43
2022-10-19T11:09:59.783Z,12.37
2022-10-19T11:13:16.634Z,12.33
2022-10-19T11:16:23.837Z,12.23
2022-10-19T11:19:29.728Z,12.18
2022-10-19T11:22:54.555Z,12.14
2022-10-19T11:26:10.662Z,12.16
2022-10-19T11:29:30.873Z,12.21
2022-10-19T11:33:00.189Z,12.31
2022-10-19T11:36:24.441Z,12.38
2022-10-19T11:39:54.809Z,12.46
2022-10-19T11:43:04.852Z,12.54
2022-10-19T11:46:27.867Z,12.61
2022-10-19T11:50:01.854Z,12.62
2022-10-19T11:53:06.173Z,12.66
2022-10-19T11:56:16.660Z,12.66
2022-10-19T11:59:37.313Z,12.62
2022-10-19T12:02:38.816Z,12.59
2022-10-19T12:05:59.761Z,12.59
2022-10-19T12:09:24.589Z,12.61
2022-10-19T12:12:36.293Z,12.64
2022-10-19T12:15:42.636Z,12.65
2022-10-19T12:18:51.389Z,12.62
2022-10-19T12:22:01.424Z,12.60
2022-10-19T12:25:03.900Z,12.60
2022-10-19T12:28:05.652Z,12.59
2022-10-19T12:31:08.116Z,12.60
2022-10-19T12:34:46.744Z,12.64
2022-10-19T12:38:00.011Z,12.64
2022-10-19T12:41:01.919Z,12.66
2022-10-19T12:44:19.936Z,12.68
2022-10-19T12:47:23.472Z,12.67
2022-10-19T12:50:50.092Z,12.68
2022-10-19T12:53:51.691Z,12.74
2022-10-19T12:56:55.767Z,12.86
2022-10-19T13:00:00.774Z,12.93
2022-10-19T13:03:05.519Z,13.02
2022-10-19T13:06:18.470Z,13.07
2022-10-19T13:09:41.912Z,13.13
2022-10-19T13:12:46.863Z,13.21
2022-10-19T13:15:51.412Z,13.18
2022-10-19T13:18:59.186Z,13.10
2022-10-19T13:22:01.097Z,13.03
2022-10-19T13:25:23.780Z,12.99
2022-10-19T13:28:28.073Z,12.97
2022-10-19T13:31:31.437Z,12.95
2022-10-19T13:34:33.752Z,12.90
2022-10-19T13:37:35.495Z,12.84
2022-10-19T13:40:49.183Z,12.85
2022-10-19T13:43:56.528Z,12.90
2022-10-19T13:47:07.573Z,12.92
2022-10-19T13:50:50.583Z,12.98
2022-10-19T13:54:00.764Z,13.08
2022-10-19T13:57:10.575Z,13.31
2022-10-19T14:00:18.039Z,13.38
2022-10-19T14:03:38.269Z,13.29
2022-10-19T14:06:42.634Z,13.10
2022-10-19T14:09:47.037Z,13.00
2022-10-19T14:12:49.780Z,12.85
2022-10-19T14:15:54.107Z,12.72
2022-10-19T14:18:56.404Z,12.60
2022-10-19T14:22:17.592Z,12.50
2022-10-19T14:25:20.893Z,12.40
2022-10-19T14:28:23.748Z,12.38
2022-10-19T14:31:37.322Z,12.31
2022-10-19T14:34:43.543Z,12.22
2022-10-19T14:37:45.295Z,12.14
2022-10-19T14:40:46.843Z,12.09
2022-10-19T14:43:48.421Z,12.14
2022-10-19T14:46:50.048Z,12.11
2022-10-19T14:49:51.731Z,12.05
2022-10-19T14:53:01.760Z,11.99
2022-10-19T14:56:09.745Z,11.93
2022-10-19T14:59:31.239Z,11.90
2022-10-19T15:03:01.619Z,11.90
2022-10-19T15:06:06.108Z,11.89
2022-10-19T15:09:15.407Z,11.89
2022-10-19T15:12:36.536Z,11.88
2022-10-19T15:15:41.926Z,11.87
2022-10-19T15:18:49.783Z,11.83
2022-10-19T15:22:18.607Z,11.80
2022-10-19T15:25:36.829Z,11.78
2022-10-19T15:28:41.649Z,11.76
2022-10-19T15:31:43.488Z,11.74
2022-10-19T15:34:46.281Z,11.72
2022-10-19T15:37:50.073Z,11.67
2022-10-19T15:41:02.549Z,11.62
2022-10-19T15:44:08.574Z,11.56
2022-10-19T15:47:15.831Z,11.53
2022-10-19T15:50:36.617Z,11.49
2022-10-19T15:53:38.125Z,11.45
2022-10-19T15:56:40.195Z,11.43
2022-10-19T15:59:41.742Z,11.40
2022-10-19T16:02:43.368Z,11.41
2022-10-19T16:05:45.139Z,11.42
2022-10-19T16:08:47.731Z,11.45
2022-10-19T16:11:50.327Z,11.44
2022-10-19T16:14:52.579Z,11.43
2022-10-19T16:18:00.088Z,11.43
2022-10-19T16:21:01.807Z,11.40
2022-10-19T16:24:03.906Z,11.34
2022-10-19T16:27:06.483Z,11.27
2022-10-19T16:30:08.715Z,11.17
2022-10-19T16:33:10.218Z,11.08
2022-10-19T16:36:13.037Z,11.02
2022-10-19T16:39:14.589Z,11.23
2022-10-19T16:42:16.184Z,11.11
2022-10-19T16:45:17.737Z,11.09
2022-10-19T16:48:23.891Z,11.04
2022-10-19T16:51:30.498Z,10.99
2022-10-19T16:54:32.892Z,11.02
2022-10-19T16:57:34.621Z,11.14
2022-10-19T17:00:36.232Z,11.17
2022-10-19T17:03:37.818Z,11.07
2022-10-19T17:06:40.616Z,10.97
2022-10-19T17:09:43.214Z,10.87
2022-10-19T17:12:45.024Z,10.83
2022-10-19T17:15:46.559Z,10.80
2022-10-19T17:18:48.988Z,10.74
2022-10-19T17:21:50.712Z,10.71
2022-10-19T17:24:54.180Z,10.66
2022-10-19T17:27:55.761Z,10.63
2022-10-19T17:30:57.969Z,10.63
2022-10-19T17:34:00.823Z,10.62
2022-10-19T17:37:02.513Z,10.59
2022-10-19T17:40:04.454Z,10.54
2022-10-19T17:43:06.001Z,10.52
2022-10-19T17:46:09.542Z,10.49
2022-10-19T17:49:11.631Z,10.40
2022-10-19T17:52:13.437Z,10.31
2022-10-19T17:55:15.072Z,10.20
2022-10-19T17:58:16.693Z,10.07
2022-10-19T18:01:19.769Z,10.01
2022-10-19T18:04:21.353Z,10.01
2022-10-19T18:07:25.622Z,10.00
2022-10-19T18:10:27.157Z,9.96
2022-10-19T18:13:29.110Z,9.93
2022-10-19T18:16:52.125Z,9.92
2022-10-19T18:19:53.702Z,9.88
2022-10-19T18:22:55.203Z,9.84
2022-10-19T18:26:02.146Z,9.77
2022-10-19T18:29:11.118Z,9.71
2022-10-19T18:32:12.670Z,9.64
2022-10-19T18:35:14.265Z,9.52
2022-10-19T18:38:15.816Z,9.44
2022-10-19T18:41:17.810Z,9.41
2022-10-19T18:44:25.154Z,9.42
2022-10-19T18:47:30.251Z,9.39
2022-10-19T18:50:31.898Z,9.34
2022-10-19T18:53:34.408Z,9.32
2022-10-19T18:56:38.477Z,9.28
2022-10-19T18:59:40.055Z,9.15
2022-10-19T19:02:47.018Z,9.02
2022-10-19T19:05:48.962Z,8.88
2022-10-19T19:08:51.308Z,8.74
2022-10-19T19:11:54.335Z,8.59
2022-10-19T19:14:55.876Z,8.44
2022-10-19T19:17:57.394Z,8.30
2022-10-19T19:20:59.010Z,8.19
2022-10-19T19:24:02.045Z,8.12
2022-10-19T19:27:03.746Z,8.05
2022-10-19T19:30:05.756Z,8.00
2022-10-19T19:33:07.378Z,7.94
2022-10-19T19:36:11.406Z,7.91
2022-10-19T19:39:14.921Z,7.85
2022-10-19T19:42:16.497Z,7.82
2022-10-19T19:45:18.013Z,7.79
2022-10-19T19:48:19.615Z,7.78
2022-10-19T19:51:21.400Z,7.73
2022-10-19T19:54:23.597Z,7.70
2022-10-19T19:57:25.266Z,7.66
2022-10-19T20:00:26.863Z,7.58
2022-10-19T20:03:28.519Z,7.50
2022-10-19T20:06:31.020Z,7.44
2022-10-19T20:09:32.663Z,7.37
2022-10-19T20:12:34.196Z,7.30
2022-10-19T20:15:38.849Z,7.27
2022-10-19T20:18:48.912Z,7.26
2022-10-19T20:21:50.477Z,7.26
2022-10-19T20:24:52.137Z,7.27
2022-10-19T20:27:53.749Z,7.27
2022-10-19T20:31:09.124Z,7.26
2022-10-19T20:34:13.673Z,7.25
2022-10-19T20:37:15.203Z,7.23
2022-10-19T20:40:17.702Z,7.22
2022-10-19T20:43:19.298Z,7.20
2022-10-19T20:46:23.612Z,7.18
2022-10-19T20:49:25.153Z,7.13
2022-10-19T20:52:26.684Z,7.08
2022-10-19T20:55:28.192Z,7.02
2022-10-19T20:58:29.712Z,6.99
2022-10-19T21:01:33.816Z,6.95
2022-10-19T21:04:35.575Z,6.90
2022-10-19T21:07:37.116Z,6.88
2022-10-19T21:10:38.638Z,6.84
2022-10-19T21:13:40.470Z,6.81
2022-10-19T21:16:42.784Z,6.76
2022-10-19T21:19:44.317Z,6.77
2022-10-19T21:22:45.816Z,6.85
2022-10-19T21:25:54.834Z,6.82
2022-10-19T21:28:56.893Z,6.76
2022-10-19T21:31:58.582Z,6.71
2022-10-19T21:35:00.184Z,6.64
2022-10-19T21:38:01.676Z,6.59
2022-10-19T21:41:05.677Z,6.56
2022-10-19T21:44:07.236Z,6.51
2022-10-19T21:47:08.763Z,6.46
2022-10-19T21:50:10.279Z,6.42
2022-10-19T21:53:11.808Z,6.38
2022-10-19T21:56:15.541Z,6.35
2022-10-19T21:59:18.221Z,6.32
2022-10-19T22:02:19.735Z,6.29
2022-10-19T22:05:21.536Z,6.25
2022-10-19T22:08:23.091Z,6.23
2022-10-19T22:11:25.396Z,6.21
2022-10-19T22:14:27.184Z,6.20
2022-10-19T22:17:28.693Z,6.39
2022-10-19T22:20:30.260Z,6.35
2022-10-19T22:23:31.904Z,6.32
2022-10-19T22:26:37.174Z,6.26
2022-10-19T22:29:38.752Z,6.18
2022-10-19T22:32:40.348Z,6.11
2022-10-19T22:35:41.881Z,6.03
2022-10-19T22:38:43.472Z,5.96
2022-10-19T22:41:45.001Z,5.90
2022-10-19T22:44:46.531Z,5.84
2022-10-19T22:47:48.073Z,5.81
2022-10-19T22:50:54.196Z,5.75
2022-10-19T22:53:55.842Z,5.73
2022-10-19T22:56:57.453Z,5.69
2022-10-19T22:59:59.032Z,5.65
2022-10-19T23:03:00.589Z,5.62
2022-10-19T23:06:02.148Z,5.56
2022-10-19T23:09:04.018Z,5.53
2022-10-19T23:12:06.242Z,5.49
2022-10-19T23:15:08.648Z,5.44
2022-10-19T23:18:10.339Z,5.38
2022-10-19T23:21:13.184Z,5.33
2022-10-19T23:24:14.824Z,5.32
2022-10-19T23:27:16.400Z,5.29
2022-10-19T23:30:17.993Z,5.27
2022-10-19T23:33:19.481Z,5.27
2022-10-19T23:36:24.733Z,5.25
2022-10-19T23:39:26.236Z,5.22
2022-10-19T23:42:27.778Z,5.21
2022-10-19T23:45:29.349Z,5.21
2022-10-19T23:48:30.916Z,5.20
2022-10-19T23:51:32.645Z,5.19
2022-10-19T23:54:34.356Z,5.19
2022-10-19T23:57:36.363Z,5.19
